Time;durP1;ratioP1;P1;durP2;ratioP2;P2;SDS_P1;SDS_P2;PMS_P1;PMS_P2;Temp;Humidity;BMP_temperature;BMP_pressure;BME280_temperature;BME280_humidity;BME280_pressure;Samples;Min_cycle;Max_cycle;Signal;HPM_P1;HPM_P2
2023/10/30 00:00:21;;;;;;;3.22;1.00;;;16.30;99.90;;;;;;5011948;28;20117;-78
2023/10/30 00:02:48;;;;;;;5.80;1.40;;;16.30;99.90;;;;;;5010290;28;20048;-78
2023/10/30 00:05:16;;;;;;;6.15;1.20;;;16.30;99.90;;;;;;5008271;28;20054;-79
2023/10/30 00:07:43;;;;;;;4.35;1.35;;;16.30;99.90;;;;;;5006836;28;20042;-79
2023/10/30 00:10:09;;;;;;;8.77;2.88;;;16.30;99.90;;;;;;5008792;28;20050;-79
2023/10/30 00:12:36;;;;;;;5.18;1.15;;;16.30;99.90;;;;;;5013391;28;20045;-79
2023/10/30 00:15:04;;;;;;;5.43;1.27;;;16.20;99.90;;;;;;5012117;28;20084;-79
2023/10/30 00:17:31;;;;;;;4.38;1.38;;;16.20;99.90;;;;;;5010779;28;20048;-79
2023/10/30 00:19:59;;;;;;;7.53;1.58;;;16.20;99.90;;;;;;5006581;28;20062;-79
2023/10/30 00:22:25;;;;;;;5.20;1.30;;;16.20;99.90;;;;;;5007487;28;20049;-79
2023/10/30 00:24:52;;;;;;;4.93;1.52;;;16.20;99.90;;;;;;5010858;28;20069;-78
2023/10/30 00:27:19;;;;;;;7.70;1.23;;;16.20;99.90;;;;;;5011936;28;20133;-78
2023/10/30 00:29:46;;;;;;;4.90;1.38;;;16.20;99.90;;;;;;5007120;28;20487;-79
2023/10/30 00:32:13;;;;;;;5.88;1.30;;;16.20;99.90;;;;;;5007666;28;20042;-79
2023/10/30 00:34:40;;;;;;;7.15;1.60;;;16.10;99.90;;;;;;5008041;28;20045;-79
2023/10/30 00:37:07;;;;;;;6.38;1.25;;;16.10;99.90;;;;;;5004166;28;20108;-79
2023/10/30 00:39:33;;;;;;;5.35;1.38;;;16.10;99.90;;;;;;5013926;28;20046;-79
2023/10/30 00:42:00;;;;;;;5.18;1.95;;;16.10;99.90;;;;;;5012763;28;20050;-78
2023/10/30 00:44:27;;;;;;;3.83;1.00;;;16.00;99.90;;;;;;5010739;28;20046;-79
2023/10/30 00:46:54;;;;;;;6.72;1.10;;;16.00;99.90;;;;;;5008066;28;20054;-78
2023/10/30 00:49:21;;;;;;;9.30;1.40;;;16.00;99.90;;;;;;5007227;28;20133;-79
2023/10/30 00:51:47;;;;;;;5.53;1.40;;;16.00;99.90;;;;;;5006725;28;20050;-79
2023/10/30 00:54:14;;;;;;;6.80;1.55;;;16.00;99.90;;;;;;5012291;28;20046;-78
2023/10/30 00:56:41;;;;;;;6.28;1.50;;;16.00;99.90;;;;;;5008471;28;20053;-79
2023/10/30 00:59:08;;;;;;;6.65;1.17;;;16.00;99.90;;;;;;5007591;28;20084;-78
2023/10/30 01:01:35;;;;;;;4.05;1.38;;;15.90;99.90;;;;;;5004632;28;20046;-79
2023/10/30 01:04:01;;;;;;;4.10;1.10;;;15.90;99.90;;;;;;5004217;28;20112;-79
2023/10/30 01:06:28;;;;;;;9.23;1.88;;;15.90;99.90;;;;;;5021467;28;20462;-78
2023/10/30 01:08:55;;;;;;;7.63;1.38;;;15.80;99.90;;;;;;5008380;28;20043;-78
2023/10/30 01:11:22;;;;;;;4.80;1.27;;;15.80;99.90;;;;;;5010100;28;20077;-78
2023/10/30 01:13:48;;;;;;;3.75;1.17;;;15.70;99.90;;;;;;5008141;28;20706;-78
2023/10/30 01:16:15;;;;;;;8.20;1.98;;;15.70;99.90;;;;;;5005839;28;20074;-78
2023/10/30 01:18:42;;;;;;;5.35;1.40;;;15.70;99.90;;;;;;5008734;28;20080;-78
2023/10/30 01:21:10;;;;;;;8.15;2.08;;;15.60;99.90;;;;;;5009981;28;20056;-78
2023/10/30 01:23:37;;;;;;;6.70;1.63;;;15.60;99.90;;;;;;5014174;28;20050;-78
2023/10/30 01:26:04;;;;;;;4.95;1.35;;;15.60;99.90;;;;;;5012642;28;20080;-78
2023/10/30 01:28:31;;;;;;;3.97;1.65;;;15.60;99.90;;;;;;5013610;28;20042;-78
2023/10/30 01:30:57;;;;;;;6.05;1.48;;;15.50;99.90;;;;;;5010512;28;20129;-79
2023/10/30 01:33:24;;;;;;;5.53;1.30;;;15.60;99.90;;;;;;5011256;28;20418;-78
2023/10/30 01:35:52;;;;;;;5.13;1.23;;;15.50;99.90;;;;;;5013377;28;20048;-78
2023/10/30 01:38:18;;;;;;;4.15;1.38;;;15.60;99.90;;;;;;5015280;28;20109;-78
2023/10/30 01:40:49;;;;;;;5.68;1.73;;;15.50;99.90;;;;;;5014966;28;20046;-79
2023/10/30 01:43:26;;;;;;;4.35;1.52;;;15.50;99.90;;;;;;5010528;28;20145;-78
2023/10/30 01:45:53;;;;;;;15.95;2.20;;;15.50;99.90;;;;;;5009570;28;20528;-79
2023/10/30 01:48:20;;;;;;;6.50;1.73;;;15.50;99.90;;;;;;5007938;28;20085;-79
2023/10/30 01:50:49;;;;;;;3.08;1.48;;;15.50;99.90;;;;;;5016591;28;20068;-79
2023/10/30 01:53:19;;;;;;;2.67;1.50;;;15.40;99.90;;;;;;5014144;28;20068;-78
2023/10/30 01:55:47;;;;;;;5.95;1.80;;;15.40;99.90;;;;;;5015556;28;20464;-78
2023/10/30 01:58:14;;;;;;;4.53;1.75;;;15.40;99.90;;;;;;5010252;28;20050;-78
2023/10/30 02:00:41;;;;;;;8.13;1.80;;;15.40;99.90;;;;;;5011362;28;20560;-78
2023/10/30 02:03:08;;;;;;;5.75;1.70;;;15.40;99.90;;;;;;5005750;28;20562;-79
2023/10/30 02:05:35;;;;;;;9.63;2.20;;;15.40;99.90;;;;;;5016508;28;20088;-79
2023/10/30 02:08:02;;;;;;;5.45;1.90;;;15.40;99.90;;;;;;5014255;28;20046;-78
2023/10/30 02:10:29;;;;;;;3.67;1.58;;;15.40;99.90;;;;;;5012217;28;20046;-78
2023/10/30 02:12:56;;;;;;;6.10;1.65;;;15.30;99.90;;;;;;5010819;28;20101;-78
2023/10/30 02:15:22;;;;;;;5.78;1.42;;;15.30;99.90;;;;;;5007675;28;20046;-79
2023/10/30 02:17:49;;;;;;;6.18;1.52;;;15.30;99.90;;;;;;5009851;28;20092;-78
2023/10/30 02:20:17;;;;;;;6.40;1.38;;;15.30;99.90;;;;;;5015679;28;20437;-79
2023/10/30 02:22:44;;;;;;;3.45;1.55;;;15.30;99.90;;;;;;5014899;28;20042;-79
2023/10/30 02:25:10;;;;;;;5.72;1.50;;;15.20;99.90;;;;;;5012367;28;20108;-78
2023/10/30 02:27:37;;;;;;;3.88;1.50;;;15.20;99.90;;;;;;5009285;28;20045;-78
2023/10/30 02:30:05;;;;;;;2.92;1.38;;;15.30;99.90;;;;;;5008080;28;20054;-78
2023/10/30 02:32:31;;;;;;;4.10;1.90;;;15.20;99.90;;;;;;5011619;28;20046;-78
2023/10/30 02:34:58;;;;;;;3.65;1.65;;;15.20;99.90;;;;;;5015179;28;20509;-78
2023/10/30 02:37:25;;;;;;;3.45;1.70;;;15.20;99.90;;;;;;5022039;28;20054;-78
2023/10/30 02:39:52;;;;;;;3.15;1.73;;;15.10;99.90;;;;;;5012598;28;20077;-78
2023/10/30 02:42:18;;;;;;;2.97;1.42;;;15.10;99.90;;;;;;5007766;28;20054;-78
2023/10/30 02:44:45;;;;;;;4.47;1.85;;;15.10;99.90;;;;;;5005218;28;20486;-78
2023/10/30 02:47:12;;;;;;;4.43;1.67;;;15.10;99.90;;;;;;5011823;28;20134;-78
2023/10/30 02:49:39;;;;;;;4.95;1.50;;;15.10;99.90;;;;;;5006945;28;20096;-79
2023/10/30 02:52:05;;;;;;;5.68;1.60;;;15.10;99.90;;;;;;5011516;28;20042;-78
2023/10/30 02:54:32;;;;;;;6.55;1.80;;;15.10;99.90;;;;;;5010352;28;20051;-78
2023/10/30 02:57:00;;;;;;;4.30;1.70;;;15.00;99.90;;;;;;5009019;28;20073;-79
2023/10/30 02:59:27;;;;;;;5.32;1.85;;;15.00;99.90;;;;;;5006785;28;20430;-78
2023/10/30 03:01:54;;;;;;;4.35;2.00;;;15.00;99.90;;;;;;5011113;28;20088;-78
2023/10/30 03:04:20;;;;;;;4.40;2.22;;;15.00;99.90;;;;;;5012425;28;20501;-78
2023/10/30 03:06:48;;;;;;;6.28;1.88;;;15.00;99.90;;;;;;5008690;28;20128;-78
2023/10/30 03:09:14;;;;;;;5.57;1.55;;;15.00;99.90;;;;;;5007360;28;20124;-78
2023/10/30 03:11:41;;;;;;;4.95;1.88;;;15.00;99.90;;;;;;5009192;28;20045;-79
2023/10/30 03:14:08;;;;;;;4.70;1.88;;;15.00;99.90;;;;;;5004995;28;20096;-78
2023/10/30 03:16:35;;;;;;;3.60;2.50;;;14.90;99.90;;;;;;5014326;28;20541;-78
2023/10/30 03:19:01;;;;;;;10.02;2.13;;;14.90;99.90;;;;;;5013912;28;20050;-78
2023/10/30 03:21:28;;;;;;;4.75;1.90;;;14.90;99.90;;;;;;5010275;28;20050;-78
2023/10/30 03:23:55;;;;;;;7.15;2.17;;;14.90;99.90;;;;;;5005122;28;20052;-79
2023/10/30 03:26:24;;;;;;;3.75;2.25;;;14.90;99.90;;;;;;5006592;28;20071;-78
2023/10/30 03:28:51;;;;;;;5.68;2.40;;;14.90;99.90;;;;;;5007911;28;20053;-79
2023/10/30 03:31:18;;;;;;;4.43;2.50;;;14.90;99.90;;;;;;5013166;28;20112;-78
2023/10/30 03:33:44;;;;;;;7.68;2.70;;;14.90;99.90;;;;;;5012638;28;20086;-78
2023/10/30 03:36:18;;;;;;;6.20;2.67;;;14.90;99.90;;;;;;5010151;28;20053;-79
2023/10/30 03:38:45;;;;;;;5.22;2.50;;;14.90;99.90;;;;;;5005048;28;20049;-78
2023/10/30 03:41:12;;;;;;;7.13;2.90;;;14.80;99.90;;;;;;5004892;28;20422;-78
2023/10/30 03:43:39;;;;;;;3.88;2.58;;;14.80;99.90;;;;;;5006521;28;20084;-78
2023/10/30 03:46:05;;;;;;;5.55;2.95;;;14.80;99.90;;;;;;5013848;28;20050;-78
2023/10/30 03:48:33;;;;;;;7.07;2.97;;;14.80;99.90;;;;;;5011118;28;20474;-79
2023/10/30 03:51:00;;;;;;;8.20;2.80;;;14.80;99.90;;;;;;5008919;28;20069;-78
2023/10/30 03:53:26;;;;;;;6.05;3.28;;;14.80;99.90;;;;;;5006906;28;20054;-78
2023/10/30 03:55:53;;;;;;;8.00;3.00;;;14.70;99.90;;;;;;5013311;28;20050;-78
2023/10/30 03:58:20;;;;;;;3.53;2.67;;;14.70;99.90;;;;;;5006150;28;20103;-78
2023/10/30 04:00:47;;;;;;;4.57;2.70;;;14.70;99.90;;;;;;5012631;28;20097;-78
2023/10/30 04:03:13;;;;;;;8.32;3.20;;;14.60;99.90;;;;;;5010428;28;20048;-78
2023/10/30 04:05:41;;;;;;;4.78;3.30;;;14.60;99.90;;;;;;5009681;28;20073;-78
2023/10/30 04:08:07;;;;;;;8.07;3.55;;;14.50;99.90;;;;;;5007334;28;20085;-78
2023/10/30 04:10:34;;;;;;;8.23;4.20;;;14.50;99.90;;;;;;5006168;28;20422;-78
2023/10/30 04:13:01;;;;;;;5.57;3.30;;;14.50;99.90;;;;;;5019267;28;20077;-79
2023/10/30 04:15:27;;;;;;;6.07;3.50;;;14.50;99.90;;;;;;5011191;28;20148;-78
2023/10/30 04:17:56;;;;;;;6.50;3.47;;;14.50;99.90;;;;;;5011730;28;20428;-78
2023/10/30 04:20:23;;;;;;;7.80;4.10;;;14.50;99.90;;;;;;5007678;28;20072;-79
2023/10/30 04:22:50;;;;;;;6.25;3.42;;;14.50;99.90;;;;;;5008508;28;20050;-79
2023/10/30 04:25:18;;;;;;;4.05;3.08;;;14.50;99.90;;;;;;5003647;28;20108;-79
2023/10/30 04:27:45;;;;;;;4.72;4.03;;;14.50;99.90;;;;;;5012361;28;20073;-78
2023/10/30 04:30:12;;;;;;;5.80;3.72;;;14.50;99.90;;;;;;5008497;28;20136;-78
2023/10/30 04:32:39;;;;;;;7.65;3.63;;;14.40;99.90;;;;;;5007972;28;20050;-78
2023/10/30 04:35:06;;;;;;;6.60;3.90;;;14.40;99.90;;;;;;5008874;28;20509;-78
2023/10/30 04:37:33;;;;;;;7.05;3.95;;;14.40;99.90;;;;;;5005943;28;20547;-78
2023/10/30 04:39:59;;;;;;;5.20;3.50;;;14.40;99.90;;;;;;5005815;28;20110;-79
2023/10/30 04:42:27;;;;;;;7.75;3.50;;;14.40;99.90;;;;;;5012941;28;20058;-78
2023/10/30 04:44:55;;;;;;;4.32;3.60;;;14.40;99.90;;;;;;5012010;28;20050;-79
2023/10/30 04:47:22;;;;;;;5.45;3.80;;;14.40;99.90;;;;;;5008316;28;20085;-79
2023/10/30 04:49:50;;;;;;;6.55;3.92;;;14.40;99.90;;;;;;5009220;28;20049;-78
2023/10/30 04:52:16;;;;;;;5.68;4.30;;;14.40;99.90;;;;;;5017897;28;20085;-78
2023/10/30 04:54:43;;;;;;;5.63;4.07;;;14.40;99.90;;;;;;5020618;28;20501;-78
2023/10/30 04:57:10;;;;;;;5.40;3.63;;;14.40;99.90;;;;;;5012355;28;20057;-78
2023/10/30 04:59:37;;;;;;;6.15;3.95;;;14.40;99.90;;;;;;5010636;28;20097;-79
2023/10/30 05:02:03;;;;;;;8.23;4.47;;;14.40;99.90;;;;;;5009500;28;20483;-79
2023/10/30 05:04:31;;;;;;;8.50;4.20;;;14.40;99.90;;;;;;5006116;28;20089;-79
2023/10/30 05:06:57;;;;;;;6.32;4.55;;;14.40;99.90;;;;;;5007837;28;20054;-78
2023/10/30 05:09:24;;;;;;;8.82;4.30;;;14.50;99.90;;;;;;5005839;28;20104;-78
2023/10/30 05:11:51;;;;;;;4.85;3.70;;;14.50;99.90;;;;;;5012163;28;20133;-78
2023/10/30 05:14:18;;;;;;;4.78;3.92;;;14.50;99.90;;;;;;5010258;28;20093;-79
2023/10/30 05:16:44;;;;;;;8.50;4.35;;;14.50;99.90;;;;;;5008901;28;20054;-78
2023/10/30 05:19:11;;;;;;;5.22;4.50;;;14.50;99.90;;;;;;5007745;28;20089;-78
2023/10/30 05:21:38;;;;;;;8.38;4.93;;;14.50;99.90;;;;;;5005201;28;20134;-79
2023/10/30 05:24:05;;;;;;;6.05;4.30;;;14.50;99.90;;;;;;5009679;28;20057;-78
2023/10/30 05:26:32;;;;;;;6.97;3.70;;;14.60;99.90;;;;;;5010865;28;20046;-79
2023/10/30 05:28:59;;;;;;;7.00;3.90;;;14.60;99.90;;;;;;5011184;28;20089;-79
2023/10/30 05:31:26;;;;;;;4.45;3.85;;;14.60;99.90;;;;;;5006741;28;20046;-78
2023/10/30 05:33:53;;;;;;;10.98;6.10;;;14.60;99.90;;;;;;5003805;28;20082;-78
2023/10/30 05:36:20;;;;;;;12.68;7.18;;;14.60;99.90;;;;;;5002663;28;20050;-78
2023/10/30 05:38:47;;;;;;;11.35;8.70;;;14.60;99.90;;;;;;5008492;28;20462;-78
2023/10/30 05:41:14;;;;;;;12.68;9.02;;;14.60;99.90;;;;;;5012165;28;20085;-79
2023/10/30 05:43:40;;;;;;;12.68;9.10;;;14.60;99.90;;;;;;5008957;28;20046;-78
2023/10/30 05:46:07;;;;;;;14.07;10.18;;;14.60;99.90;;;;;;5002852;28;20482;-79
2023/10/30 05:48:34;;;;;;;14.50;9.73;;;14.60;99.90;;;;;;5005184;28;20047;-79
2023/10/30 05:51:01;;;;;;;12.98;10.50;;;14.60;99.90;;;;;;5005380;28;20052;-78
2023/10/30 05:53:27;;;;;;;17.98;12.05;;;14.60;99.90;;;;;;5009233;28;20382;-78
2023/10/30 05:55:54;;;;;;;16.38;10.95;;;14.60;99.90;;;;;;5011236;28;20539;-78
2023/10/30 05:58:21;;;;;;;21.38;12.23;;;14.60;99.90;;;;;;5010832;28;20085;-78
2023/10/30 06:00:48;;;;;;;16.40;11.75;;;14.60;99.90;;;;;;5007850;28;20127;-78
2023/10/30 06:03:14;;;;;;;17.92;12.00;;;14.60;99.90;;;;;;5005195;28;20085;-79
2023/10/30 06:05:41;;;;;;;21.05;13.30;;;14.60;99.90;;;;;;5006991;28;20054;-79
2023/10/30 06:08:08;;;;;;;19.90;12.65;;;14.60;99.90;;;;;;5015442;28;20046;-78
2023/10/30 06:10:34;;;;;;;25.02;12.68;;;14.60;99.90;;;;;;5013161;28;20050;-78
2023/10/30 06:13:01;;;;;;;19.23;12.20;;;14.60;99.90;;;;;;5013136;28;20345;-78
2023/10/30 06:15:28;;;;;;;12.18;7.25;;;14.60;99.90;;;;;;5009049;28;20090;-79
2023/10/30 06:17:55;;;;;;;12.32;7.15;;;14.60;99.90;;;;;;5008162;28;20081;-78
2023/10/30 06:20:22;;;;;;;13.40;7.25;;;14.50;99.90;;;;;;5012680;28;20525;-78
2023/10/30 06:22:49;;;;;;;12.68;7.57;;;14.50;99.90;;;;;;5014731;28;20054;-79
2023/10/30 06:25:16;;;;;;;11.35;7.25;;;14.50;99.90;;;;;;5014248;28;20050;-78
2023/10/30 06:27:43;;;;;;;12.80;7.18;;;14.50;99.90;;;;;;5010833;28;20101;-78
2023/10/30 06:30:12;;;;;;;13.23;7.70;;;14.50;99.90;;;;;;5010939;28;20045;-79
2023/10/30 06:32:39;;;;;;;13.95;7.97;;;14.50;99.90;;;;;;5007193;28;20092;-78
2023/10/30 06:35:07;;;;;;;12.23;8.80;;;14.50;99.90;;;;;;5015478;28;20054;-79
2023/10/30 06:37:33;;;;;;;14.75;8.20;;;14.50;99.90;;;;;;5013836;28;20577;-76
2023/10/30 06:40:00;;;;;;;11.48;7.75;;;14.50;99.90;;;;;;5011367;28;20061;-78
2023/10/30 06:42:27;;;;;;;9.82;6.68;;;14.50;99.90;;;;;;5014766;28;20502;-78
2023/10/30 06:44:54;;;;;;;8.73;6.68;;;14.50;99.90;;;;;;5011606;28;20116;-78
2023/10/30 06:47:20;;;;;;;17.52;6.35;;;14.50;99.90;;;;;;5007334;28;20078;-79
2023/10/30 06:49:47;;;;;;;9.95;5.80;;;14.50;99.90;;;;;;5010874;28;20046;-78
2023/10/30 06:52:14;;;;;;;9.45;6.20;;;14.50;99.90;;;;;;5014898;28;20480;-79
2023/10/30 06:54:40;;;;;;;8.02;5.68;;;14.50;99.90;;;;;;5011611;28;20046;-79
2023/10/30 06:57:07;;;;;;;9.05;5.70;;;14.60;99.90;;;;;;5012601;28;20080;-78
2023/10/30 06:59:34;;;;;;;10.63;6.95;;;14.60;99.90;;;;;;5011633;28;20046;-78
2023/10/30 07:02:00;;;;;;;13.27;7.15;;;14.50;99.90;;;;;;5009295;28;20050;-78
2023/10/30 07:04:27;;;;;;;11.32;6.90;;;14.50;99.90;;;;;;5012829;28;20111;-79
2023/10/30 07:06:54;;;;;;;12.25;7.10;;;14.50;99.90;;;;;;5013938;28;20052;-78
2023/10/30 07:09:21;;;;;;;9.75;7.10;;;14.50;99.90;;;;;;5012715;28;20042;-79
2023/10/30 07:11:48;;;;;;;9.00;7.20;;;14.50;99.90;;;;;;5025190;28;20057;-79
2023/10/30 07:14:15;;;;;;;11.40;7.00;;;14.50;99.90;;;;;;5009142;28;20046;-78
2023/10/30 07:16:41;;;;;;;11.75;7.55;;;14.50;99.90;;;;;;5006194;28;20045;-79
2023/10/30 07:19:27;;;;;;;8.82;7.40;;;14.50;99.90;;;;;;5014972;28;20525;-80
2023/10/30 07:21:53;;;;;;;10.63;8.13;;;14.50;99.90;;;;;;5012732;28;20457;-78
2023/10/30 07:24:20;;;;;;;13.93;8.40;;;14.50;99.90;;;;;;5011500;28;20046;-78
2023/10/30 07:26:47;;;;;;;12.38;8.82;;;14.50;99.90;;;;;;5024106;28;20047;-79
2023/10/30 07:29:14;;;;;;;13.98;8.93;;;14.60;99.90;;;;;;5008603;28;20046;-79
2023/10/30 07:31:40;;;;;;;14.20;9.15;;;14.60;99.90;;;;;;5004486;28;20557;-77
2023/10/30 07:34:07;;;;;;;15.18;9.98;;;14.60;99.90;;;;;;5012355;28;20192;-79
2023/10/30 07:36:34;;;;;;;12.13;8.38;;;14.60;99.90;;;;;;5013161;28;20042;-79
2023/10/30 07:39:01;;;;;;;12.82;8.45;;;14.60;99.90;;;;;;5005795;28;20045;-78
2023/10/30 07:41:27;;;;;;;11.40;9.15;;;14.60;99.90;;;;;;5018473;28;20460;-77
2023/10/30 07:43:54;;;;;;;13.70;10.57;;;14.60;99.90;;;;;;5005198;28;20134;-76
2023/10/30 07:46:21;;;;;;;14.55;10.70;;;14.60;99.90;;;;;;5005200;28;20046;-77
2023/10/30 07:48:47;;;;;;;14.65;9.68;;;14.70;99.90;;;;;;5010674;28;20042;-77
2023/10/30 07:51:14;;;;;;;18.00;9.90;;;14.70;99.90;;;;;;5005999;28;20050;-76
2023/10/30 07:53:41;;;;;;;15.10;10.80;;;14.70;99.90;;;;;;5005872;28;20478;-76
2023/10/30 07:56:08;;;;;;;14.88;11.38;;;14.70;99.90;;;;;;5006877;28;20053;-77
2023/10/30 07:58:35;;;;;;;17.83;12.55;;;14.80;99.90;;;;;;5002502;28;20108;-77
2023/10/30 08:01:01;;;;;;;17.38;11.95;;;14.80;99.90;;;;;;5003299;28;20108;-77
2023/10/30 08:03:28;;;;;;;16.60;12.50;;;14.80;99.90;;;;;;5007480;28;20129;-77
2023/10/30 08:05:59;;;;;;;18.00;12.18;;;14.80;99.90;;;;;;5008253;28;20061;-76
2023/10/30 08:08:28;;;;;;;17.45;11.93;;;14.80;99.90;;;;;;5006901;28;20042;-77
2023/10/30 08:10:55;;;;;;;15.32;10.98;;;14.90;99.90;;;;;;5005378;28;20573;-76
2023/10/30 08:13:22;;;;;;;15.20;11.43;;;14.90;99.90;;;;;;5003577;28;20046;-77
2023/10/30 08:15:48;;;;;;;18.65;11.05;;;14.90;99.90;;;;;;5005784;28;20046;-77
2023/10/30 08:18:15;;;;;;;14.15;10.25;;;14.90;99.90;;;;;;5010160;28;20448;-77
2023/10/30 08:20:42;;;;;;;17.63;12.30;;;14.90;99.90;;;;;;5007119;28;20084;-77
2023/10/30 08:23:08;;;;;;;14.15;11.52;;;15.00;99.90;;;;;;5007133;28;20050;-76
2023/10/30 08:25:35;;;;;;;14.70;11.73;;;15.00;99.90;;;;;;5007859;28;20564;-76
2023/10/30 08:28:02;;;;;;;15.63;11.75;;;15.00;99.90;;;;;;5003830;28;20081;-77
2023/10/30 08:30:29;;;;;;;15.13;11.63;;;15.10;99.90;;;;;;5010011;28;20046;-79
2023/10/30 08:32:57;;;;;;;16.25;12.30;;;15.10;99.90;;;;;;5011941;28;20054;-79
2023/10/30 08:35:23;;;;;;;18.27;12.40;;;15.10;99.90;;;;;;5009847;28;20046;-78
2023/10/30 08:37:50;;;;;;;15.52;11.90;;;15.10;99.90;;;;;;5008458;28;20046;-79
2023/10/30 08:40:17;;;;;;;18.67;12.90;;;15.20;99.90;;;;;;5008350;28;20462;-78
2023/10/30 08:42:44;;;;;;;14.27;11.50;;;15.20;99.90;;;;;;5003744;28;20113;-78
2023/10/30 08:45:11;;;;;;;16.80;12.25;;;15.20;99.90;;;;;;5008895;28;20452;-76
2023/10/30 08:47:38;;;;;;;17.25;12.07;;;15.20;99.90;;;;;;5010890;28;20123;-79
2023/10/30 08:50:07;;;;;;;15.30;12.07;;;15.20;99.90;;;;;;5007165;28;20073;-79
2023/10/30 08:52:34;;;;;;;16.38;11.35;;;15.20;99.90;;;;;;5007835;28;20084;-79
2023/10/30 08:55:01;;;;;;;13.05;9.32;;;15.20;99.90;;;;;;5006593;28;20104;-78
2023/10/30 08:57:27;;;;;;;13.27;9.77;;;15.20;99.90;;;;;;5006740;28;20073;-78
2023/10/30 08:59:54;;;;;;;14.05;10.52;;;15.10;99.90;;;;;;5012450;28;20057;-78
2023/10/30 09:02:21;;;;;;;12.23;9.80;;;15.10;99.90;;;;;;5012336;28;20049;-79
2023/10/30 09:04:51;;;;;;;;;;;15.10;99.90;;;;;;5008773;28;20050;-79
2023/10/30 09:07:18;;;;;;;10.48;8.07;;;15.00;99.90;;;;;;5008612;28;19928;-78
2023/10/30 09:09:45;;;;;;;11.85;7.80;;;15.00;99.90;;;;;;5019912;28;20046;-78
2023/10/30 09:12:12;;;;;;;13.77;8.68;;;14.90;99.90;;;;;;5005975;28;20048;-78
2023/10/30 09:14:39;;;;;;;14.65;9.27;;;14.90;99.90;;;;;;5012611;28;20540;-79
2023/10/30 09:17:08;;;;;;;9.65;7.95;;;14.90;99.90;;;;;;5010549;28;20520;-78
2023/10/30 09:19:36;;;;;;;14.45;8.48;;;14.90;99.90;;;;;;5008689;28;20041;-78
2023/10/30 09:22:04;;;;;;;12.50;7.70;;;14.90;99.90;;;;;;5008477;28;20113;-78
2023/10/30 09:24:31;;;;;;;12.98;7.88;;;14.90;99.90;;;;;;5006753;28;20078;-78
2023/10/30 09:26:57;;;;;;;11.48;8.48;;;14.90;99.90;;;;;;5009033;28;20104;-78
2023/10/30 09:29:24;;;;;;;9.60;8.07;;;15.00;99.90;;;;;;5012648;28;20049;-79
2023/10/30 09:31:51;;;;;;;11.25;8.38;;;15.00;99.90;;;;;;5010893;28;20050;-78
2023/10/30 09:34:18;;;;;;;11.63;8.18;;;15.00;99.90;;;;;;5009231;28;20042;-78
2023/10/30 09:36:45;;;;;;;11.10;8.57;;;15.00;99.90;;;;;;5005797;28;20042;-79
2023/10/30 09:39:12;;;;;;;9.80;7.43;;;15.00;99.90;;;;;;5008071;28;20098;-79
2023/10/30 09:41:43;;;;;;;12.95;8.75;;;15.10;99.90;;;;;;5016504;28;20073;-79
2023/10/30 09:44:10;;;;;;;13.88;7.95;;;15.10;99.90;;;;;;5008893;28;20041;-79
2023/10/30 09:46:39;;;;;;;12.52;7.18;;;15.20;99.90;;;;;;5013877;28;20053;-79
2023/10/30 09:49:08;;;;;;;9.88;7.65;;;15.20;99.90;;;;;;5012896;28;20042;-79
2023/10/30 09:51:37;;;;;;;11.50;8.68;;;15.30;99.90;;;;;;5009479;28;20077;-79
2023/10/30 09:54:06;;;;;;;12.70;8.43;;;15.40;99.90;;;;;;5010660;28;20418;-79
2023/10/30 09:56:34;;;;;;;12.90;8.93;;;15.50;99.90;;;;;;5014360;28;20046;-79
2023/10/30 09:59:01;;;;;;;13.75;8.18;;;15.50;99.90;;;;;;5017578;28;20050;-78
2023/10/30 10:01:28;;;;;;;11.95;9.00;;;15.50;99.90;;;;;;5013538;28;20116;-78
2023/10/30 10:03:55;;;;;;;17.27;12.82;;;15.60;99.90;;;;;;5010666;28;20046;-78
2023/10/30 10:06:22;;;;;;;14.75;9.70;;;15.60;99.90;;;;;;5010527;28;20054;-79
2023/10/30 10:08:49;;;;;;;16.20;12.52;;;15.60;99.90;;;;;;5021751;28;20093;-79
2023/10/30 10:11:22;;;;;;;9.88;8.15;;;15.60;99.90;;;;;;5016173;28;20482;-79
2023/10/30 10:13:50;;;;;;;11.50;9.32;;;15.60;99.90;;;;;;5014266;28;20065;-78
2023/10/30 10:16:31;;;;;;;14.02;10.30;;;15.60;99.90;;;;;;5011314;28;20129;-79
2023/10/30 10:18:58;;;;;;;16.27;11.63;;;15.50;99.90;;;;;;5009809;28;20081;-78
2023/10/30 10:21:25;;;;;;;13.20;10.32;;;15.50;99.90;;;;;;5009036;28;20057;-78
2023/10/30 10:23:52;;;;;;;17.67;9.68;;;15.40;99.90;;;;;;5006480;28;20058;-79
2023/10/30 10:26:29;;;;;;;13.38;9.45;;;15.40;99.90;;;;;;5015405;28;20056;-79
2023/10/30 10:28:55;;;;;;;11.10;9.02;;;15.40;99.90;;;;;;5012615;28;20046;-78
2023/10/30 10:31:22;;;;;;;12.75;9.80;;;15.40;99.90;;;;;;5015378;28;20556;-79
2023/10/30 10:33:49;;;;;;;22.67;9.90;;;15.50;99.90;;;;;;5007875;28;20046;-79
2023/10/30 10:36:16;;;;;;;13.70;9.23;;;15.50;99.90;;;;;;5005559;28;20042;-78
2023/10/30 10:38:58;;;;;;;9.88;8.50;;;15.50;99.90;;;;;;5012965;28;20042;-78
2023/10/30 10:41:26;;;;;;;14.10;10.18;;;15.50;99.90;;;;;;5016666;28;20124;-79
2023/10/30 10:43:55;;;;;;;15.70;10.30;;;15.50;99.90;;;;;;5015733;28;20049;-79
2023/10/30 10:46:22;;;;;;;17.08;10.55;;;15.50;99.90;;;;;;5020164;28;20077;-78
2023/10/30 10:48:49;;;;;;;17.20;10.35;;;15.60;99.90;;;;;;5017253;28;20042;-78
2023/10/30 10:51:32;;;;;;;22.70;11.35;;;15.60;99.90;;;;;;5009153;28;20042;-78
2023/10/30 10:54:04;;;;;;;15.25;11.00;;;15.60;99.90;;;;;;5013452;28;20128;-78
2023/10/30 10:56:36;;;;;;;11.40;9.40;;;15.70;99.90;;;;;;5013445;28;20061;-78
2023/10/30 10:59:08;;;;;;;14.30;9.90;;;15.70;99.90;;;;;;5012888;28;20061;-78
2023/10/30 11:01:37;;;;;;;14.55;10.18;;;15.80;99.90;;;;;;5008936;28;20046;-77
2023/10/30 11:04:05;;;;;;;15.73;9.90;;;15.80;99.90;;;;;;5004602;28;20081;-78
2023/10/30 11:06:36;;;;;;;14.50;10.40;;;15.90;99.90;;;;;;5006545;28;20081;-78
2023/10/30 11:09:16;;;;;;;15.32;9.75;;;15.90;99.90;;;;;;5012321;28;20054;-78
2023/10/30 11:11:58;;;;;;;12.38;8.07;;;16.00;99.90;;;;;;5003439;28;20129;-78
2023/10/30 11:14:47;;;;;;;13.35;8.88;;;16.00;99.90;;;;;;5008597;28;20070;-78
2023/10/30 11:17:14;;;;;;;9.95;8.38;;;16.10;99.90;;;;;;5007343;28;20153;-78
2023/10/30 11:19:41;;;;;;;13.43;9.05;;;16.20;99.90;;;;;;5003898;28;20118;-78
2023/10/30 11:22:08;;;;;;;11.48;7.95;;;16.30;99.90;;;;;;5012110;28;20050;-78
2023/10/30 11:24:38;;;;;;;13.60;8.77;;;16.30;99.90;;;;;;5011781;28;20045;-78
2023/10/30 11:27:24;;;;;;;;;;;16.40;99.90;;;;;;5009293;28;20141;-78
2023/10/30 11:30:06;;;;;;;14.80;8.38;;;16.40;99.90;;;;;;5006953;28;19929;-78
2023/10/30 11:32:45;;;;;;;11.07;8.10;;;16.50;99.90;;;;;;4999802;28;20415;-78
2023/10/30 11:35:12;;;;;;;11.93;7.75;;;16.50;99.90;;;;;;5008135;28;20056;-78
2023/10/30 11:37:39;;;;;;;14.10;9.55;;;16.60;99.90;;;;;;5012772;28;20432;-78
2023/10/30 11:40:07;;;;;;;13.93;7.53;;;16.50;99.90;;;;;;5009608;28;20046;-78
2023/10/30 11:42:39;;;;;;;12.75;8.10;;;16.60;99.90;;;;;;5004551;28;20042;-78
2023/10/30 11:45:24;;;;;;;13.95;10.00;;;16.60;99.90;;;;;;5005912;28;20425;-78
2023/10/30 11:48:05;;;;;;;17.88;10.88;;;16.70;99.90;;;;;;5009697;28;20045;-79
2023/10/30 11:50:34;;;;;;;16.52;10.50;;;16.70;99.90;;;;;;5011837;28;20402;-78
2023/10/30 11:53:12;;;;;;;13.55;8.93;;;16.80;99.90;;;;;;5011189;28;20053;-78
2023/10/30 11:55:40;;;;;;;12.70;7.78;;;16.80;99.90;;;;;;5007466;28;20046;-78
2023/10/30 11:58:11;;;;;;;12.82;7.68;;;16.80;99.90;;;;;;5006378;28;20105;-78
2023/10/30 12:00:46;;;;;;;11.25;7.65;;;16.80;99.90;;;;;;5005657;28;20049;-78
2023/10/30 12:03:15;;;;;;;7.68;5.50;;;16.70;99.90;;;;;;5003645;28;20053;-78
2023/10/30 12:05:45;;;;;;;9.57;6.55;;;16.80;99.90;;;;;;5012015;28;20049;-78
2023/10/30 12:08:13;;;;;;;10.32;6.22;;;16.70;99.90;;;;;;5009366;28;20050;-79
2023/10/30 12:10:39;;;;;;;14.77;5.72;;;16.80;99.90;;;;;;5006668;28;20041;-78
2023/10/30 12:13:08;;;;;;;7.85;5.60;;;16.80;99.90;;;;;;5006469;28;20043;-79
2023/10/30 12:15:35;;;;;;;12.95;6.50;;;16.70;99.90;;;;;;5006188;28;20041;-78
2023/10/30 12:18:04;;;;;;;11.10;6.97;;;16.70;99.90;;;;;;5006410;28;20046;-78
2023/10/30 12:20:31;;;;;;;11.70;5.95;;;16.70;99.90;;;;;;5012229;28;20048;-78
2023/10/30 12:22:58;;;;;;;9.35;6.32;;;16.80;99.90;;;;;;5010199;28;20052;-78
2023/10/30 12:25:25;;;;;;;12.30;6.18;;;16.70;99.90;;;;;;5009051;28;20120;-78
2023/10/30 12:28:00;;;;;;;12.05;6.75;;;16.80;99.90;;;;;;5009613;28;20050;-79
2023/10/30 12:30:35;;;;;;;12.38;7.25;;;16.80;99.90;;;;;;5002297;28;20042;-78
2023/10/30 12:33:02;;;;;;;10.70;6.78;;;16.80;99.90;;;;;;5008245;28;20671;-77
2023/10/30 12:35:30;;;;;;;13.95;7.53;;;16.80;99.90;;;;;;5010224;28;20411;-77
2023/10/30 12:37:56;;;;;;;11.88;7.40;;;16.80;99.90;;;;;;5007694;28;20050;-77
2023/10/30 12:40:23;;;;;;;10.40;6.63;;;16.70;99.90;;;;;;5003343;28;20065;-77
2023/10/30 12:42:50;;;;;;;11.38;7.35;;;16.60;99.90;;;;;;5003809;28;20096;-77